sensor_id;sensor_type;location;lat;lon;timestamp;P1;durP1;ratioP1;P2;durP2;ratioP2
10132;SDS011;5106;50.926;7.080;2023-04-15T00:00:09;4.97;;;1.90;;
10132;SDS011;5106;50.926;7.080;2023-04-15T00:02:35;3.53;;;2.00;;
10132;SDS011;5106;50.926;7.080;2023-04-15T00:05:01;2.87;;;1.97;;
10132;SDS011;5106;50.926;7.080;2023-04-15T00:07:27;3.17;;;1.97;;
10132;SDS011;5106;50.926;7.080;2023-04-15T00:09:53;4.80;;;2.20;;
10132;SDS011;5106;50.926;7.080;2023-04-15T00:12:21;3.50;;;2.00;;
10132;SDS011;5106;50.926;7.080;2023-04-15T00:14:48;3.00;;;1.70;;
10132;SDS011;5106;50.926;7.080;2023-04-15T00:17:14;3.50;;;2.00;;
10132;SDS011;5106;50.926;7.080;2023-04-15T00:19:39;4.40;;;2.20;;
10132;SDS011;5106;50.926;7.080;2023-04-15T00:22:05;3.17;;;1.80;;
10132;SDS011;5106;50.926;7.080;2023-04-15T00:24:32;2.80;;;2.07;;
10132;SDS011;5106;50.926;7.080;2023-04-15T00:26:58;2.47;;;1.87;;
10132;SDS011;5106;50.926;7.080;2023-04-15T00:29:24;4.20;;;2.20;;
10132;SDS011;5106;50.926;7.080;2023-04-15T00:31:50;3.23;;;1.60;;
10132;SDS011;5106;50.926;7.080;2023-04-15T00:34:17;3.10;;;1.67;;
10132;SDS011;5106;50.926;7.080;2023-04-15T00:36:43;4.30;;;1.73;;
10132;SDS011;5106;50.926;7.080;2023-04-15T00:39:08;3.10;;;2.07;;
10132;SDS011;5106;50.926;7.080;2023-04-15T00:41:34;3.37;;;1.80;;
10132;SDS011;5106;50.926;7.080;2023-04-15T00:44:03;2.30;;;1.50;;
10132;SDS011;5106;50.926;7.080;2023-04-15T00:46:30;3.93;;;1.90;;
10132;SDS011;5106;50.926;7.080;2023-04-15T00:48:57;4.73;;;2.20;;
10132;SDS011;5106;50.926;7.080;2023-04-15T00:51:23;2.70;;;1.90;;
10132;SDS011;5106;50.926;7.080;2023-04-15T00:53:49;3.53;;;2.13;;
10132;SDS011;5106;50.926;7.080;2023-04-15T00:56:15;3.87;;;1.90;;
10132;SDS011;5106;50.926;7.080;2023-04-15T00:58:41;3.07;;;1.90;;
10132;SDS011;5106;50.926;7.080;2023-04-15T01:01:07;2.70;;;2.13;;
10132;SDS011;5106;50.926;7.080;2023-04-15T01:03:32;2.67;;;1.80;;
10132;SDS011;5106;50.926;7.080;2023-04-15T01:05:59;3.13;;;1.80;;
10132;SDS011;5106;50.926;7.080;2023-04-15T01:08:27;3.40;;;1.90;;
10132;SDS011;5106;50.926;7.080;2023-04-15T01:10:54;3.37;;;1.90;;
10132;SDS011;5106;50.926;7.080;2023-04-15T01:13:22;2.43;;;1.80;;
10132;SDS011;5106;50.926;7.080;2023-04-15T01:15:48;4.33;;;2.03;;
10132;SDS011;5106;50.926;7.080;2023-04-15T01:18:14;2.27;;;1.77;;
10132;SDS011;5106;50.926;7.080;2023-04-15T01:20:40;3.10;;;1.90;;
10132;SDS011;5106;50.926;7.080;2023-04-15T01:23:05;3.47;;;1.87;;
10132;SDS011;5106;50.926;7.080;2023-04-15T01:25:32;5.43;;;2.13;;
10132;SDS011;5106;50.926;7.080;2023-04-15T01:27:58;3.30;;;1.80;;
10132;SDS011;5106;50.926;7.080;2023-04-15T01:30:24;2.93;;;2.00;;
10132;SDS011;5106;50.926;7.080;2023-04-15T01:32:51;4.20;;;2.10;;
10132;SDS011;5106;50.926;7.080;2023-04-15T01:35:17;3.43;;;2.03;;
10132;SDS011;5106;50.926;7.080;2023-04-15T01:37:43;3.77;;;2.10;;
10132;SDS011;5106;50.926;7.080;2023-04-15T01:40:10;3.17;;;1.87;;
10132;SDS011;5106;50.926;7.080;2023-04-15T01:42:36;2.87;;;1.60;;
10132;SDS011;5106;50.926;7.080;2023-04-15T01:45:01;4.20;;;1.80;;
10132;SDS011;5106;50.926;7.080;2023-04-15T01:47:27;4.50;;;2.00;;
10132;SDS011;5106;50.926;7.080;2023-04-15T01:49:53;5.50;;;2.20;;
10132;SDS011;5106;50.926;7.080;2023-04-15T01:52:19;4.90;;;1.60;;
10132;SDS011;5106;50.926;7.080;2023-04-15T01:54:44;2.63;;;1.67;;
10132;SDS011;5106;50.926;7.080;2023-04-15T01:57:10;3.17;;;2.00;;
10132;SDS011;5106;50.926;7.080;2023-04-15T01:59:36;6.70;;;2.40;;
10132;SDS011;5106;50.926;7.080;2023-04-15T02:02:02;4.63;;;2.00;;
10132;SDS011;5106;50.926;7.080;2023-04-15T02:04:28;4.23;;;2.07;;
10132;SDS011;5106;50.926;7.080;2023-04-15T02:06:54;4.17;;;2.53;;
10132;SDS011;5106;50.926;7.080;2023-04-15T02:09:21;6.43;;;2.33;;
10132;SDS011;5106;50.926;7.080;2023-04-15T02:11:46;6.00;;;2.53;;
10132;SDS011;5106;50.926;7.080;2023-04-15T02:14:12;3.40;;;2.33;;
10132;SDS011;5106;50.926;7.080;2023-04-15T02:16:38;3.20;;;2.13;;
10132;SDS011;5106;50.926;7.080;2023-04-15T02:19:04;4.33;;;2.10;;
10132;SDS011;5106;50.926;7.080;2023-04-15T02:21:30;4.50;;;2.60;;
10132;SDS011;5106;50.926;7.080;2023-04-15T02:23:55;4.40;;;2.27;;
10132;SDS011;5106;50.926;7.080;2023-04-15T02:26:21;3.07;;;2.10;;
10132;SDS011;5106;50.926;7.080;2023-04-15T02:28:47;5.87;;;2.30;;
10132;SDS011;5106;50.926;7.080;2023-04-15T02:31:15;3.20;;;2.07;;
10132;SDS011;5106;50.926;7.080;2023-04-15T02:33:41;3.30;;;2.30;;
10132;SDS011;5106;50.926;7.080;2023-04-15T02:36:07;3.13;;;2.10;;
10132;SDS011;5106;50.926;7.080;2023-04-15T02:38:34;5.00;;;2.20;;
10132;SDS011;5106;50.926;7.080;2023-04-15T02:40:59;3.83;;;2.20;;
10132;SDS011;5106;50.926;7.080;2023-04-15T02:43:25;3.07;;;2.10;;
10132;SDS011;5106;50.926;7.080;2023-04-15T02:45:51;4.80;;;2.17;;
10132;SDS011;5106;50.926;7.080;2023-04-15T02:48:17;3.10;;;1.90;;
10132;SDS011;5106;50.926;7.080;2023-04-15T02:50:44;3.80;;;1.90;;
10132;SDS011;5106;50.926;7.080;2023-04-15T02:53:10;3.83;;;1.80;;
10132;SDS011;5106;50.926;7.080;2023-04-15T02:55:37;4.50;;;2.17;;
10132;SDS011;5106;50.926;7.080;2023-04-15T02:58:03;4.00;;;2.13;;
10132;SDS011;5106;50.926;7.080;2023-04-15T03:00:28;3.53;;;1.90;;
10132;SDS011;5106;50.926;7.080;2023-04-15T03:03:03;4.07;;;2.13;;
10132;SDS011;5106;50.926;7.080;2023-04-15T03:05:30;3.13;;;2.23;;
10132;SDS011;5106;50.926;7.080;2023-04-15T03:07:55;3.67;;;2.07;;
10132;SDS011;5106;50.926;7.080;2023-04-15T03:10:21;3.83;;;2.27;;
10132;SDS011;5106;50.926;7.080;2023-04-15T03:12:47;4.63;;;2.17;;
10132;SDS011;5106;50.926;7.080;2023-04-15T03:15:12;3.53;;;2.17;;
10132;SDS011;5106;50.926;7.080;2023-04-15T03:17:39;3.53;;;2.10;;
10132;SDS011;5106;50.926;7.080;2023-04-15T03:20:05;3.03;;;2.07;;
10132;SDS011;5106;50.926;7.080;2023-04-15T03:22:31;2.97;;;2.00;;
10132;SDS011;5106;50.926;7.080;2023-04-15T03:24:57;3.50;;;2.20;;
10132;SDS011;5106;50.926;7.080;2023-04-15T03:27:23;3.17;;;1.90;;
10132;SDS011;5106;50.926;7.080;2023-04-15T03:29:49;3.73;;;2.20;;
10132;SDS011;5106;50.926;7.080;2023-04-15T03:32:15;4.57;;;2.43;;
10132;SDS011;5106;50.926;7.080;2023-04-15T03:34:41;3.30;;;2.20;;
10132;SDS011;5106;50.926;7.080;2023-04-15T03:37:07;3.40;;;2.20;;
10132;SDS011;5106;50.926;7.080;2023-04-15T03:39:33;5.47;;;2.27;;
10132;SDS011;5106;50.926;7.080;2023-04-15T03:41:58;4.07;;;2.40;;
10132;SDS011;5106;50.926;7.080;2023-04-15T03:44:25;2.60;;;2.10;;
10132;SDS011;5106;50.926;7.080;2023-04-15T03:46:51;3.63;;;2.00;;
10132;SDS011;5106;50.926;7.080;2023-04-15T03:49:17;3.67;;;2.10;;
10132;SDS011;5106;50.926;7.080;2023-04-15T03:51:43;3.50;;;2.30;;
10132;SDS011;5106;50.926;7.080;2023-04-15T03:54:09;2.70;;;1.80;;
10132;SDS011;5106;50.926;7.080;2023-04-15T03:56:35;2.97;;;2.10;;
10132;SDS011;5106;50.926;7.080;2023-04-15T03:59:01;4.10;;;2.20;;
10132;SDS011;5106;50.926;7.080;2023-04-15T04:01:27;2.77;;;2.17;;
10132;SDS011;5106;50.926;7.080;2023-04-15T04:03:52;3.47;;;2.13;;
10132;SDS011;5106;50.926;7.080;2023-04-15T04:06:18;4.87;;;2.30;;
10132;SDS011;5106;50.926;7.080;2023-04-15T04:08:44;5.47;;;2.37;;
10132;SDS011;5106;50.926;7.080;2023-04-15T04:11:10;3.00;;;2.33;;
10132;SDS011;5106;50.926;7.080;2023-04-15T04:13:35;2.83;;;2.07;;
10132;SDS011;5106;50.926;7.080;2023-04-15T04:16:01;3.53;;;2.40;;
10132;SDS011;5106;50.926;7.080;2023-04-15T04:18:28;3.37;;;2.33;;
10132;SDS011;5106;50.926;7.080;2023-04-15T04:20:56;3.30;;;2.20;;
10132;SDS011;5106;50.926;7.080;2023-04-15T04:23:22;4.70;;;2.50;;
10132;SDS011;5106;50.926;7.080;2023-04-15T04:25:51;4.47;;;2.07;;
10132;SDS011;5106;50.926;7.080;2023-04-15T04:28:17;3.30;;;2.30;;
10132;SDS011;5106;50.926;7.080;2023-04-15T04:30:43;4.83;;;2.20;;
10132;SDS011;5106;50.926;7.080;2023-04-15T04:33:09;5.43;;;2.47;;
10132;SDS011;5106;50.926;7.080;2023-04-15T04:35:34;4.80;;;2.80;;
10132;SDS011;5106;50.926;7.080;2023-04-15T04:38:01;3.80;;;2.60;;
10132;SDS011;5106;50.926;7.080;2023-04-15T04:40:28;4.60;;;2.70;;
10132;SDS011;5106;50.926;7.080;2023-04-15T04:42:55;4.73;;;3.60;;
10132;SDS011;5106;50.926;7.080;2023-04-15T04:45:20;11.97;;;4.10;;
10132;SDS011;5106;50.926;7.080;2023-04-15T04:47:46;4.17;;;2.87;;
10132;SDS011;5106;50.926;7.080;2023-04-15T04:50:12;3.37;;;2.83;;
10132;SDS011;5106;50.926;7.080;2023-04-15T04:52:38;9.43;;;3.00;;
10132;SDS011;5106;50.926;7.080;2023-04-15T04:55:03;3.93;;;2.67;;
10132;SDS011;5106;50.926;7.080;2023-04-15T04:57:29;5.00;;;2.97;;
10132;SDS011;5106;50.926;7.080;2023-04-15T04:59:55;5.53;;;3.27;;
10132;SDS011;5106;50.926;7.080;2023-04-15T05:02:21;4.63;;;2.73;;
10132;SDS011;5106;50.926;7.080;2023-04-15T05:04:47;5.07;;;2.93;;
10132;SDS011;5106;50.926;7.080;2023-04-15T05:07:14;4.17;;;2.57;;
10132;SDS011;5106;50.926;7.080;2023-04-15T05:09:39;3.07;;;2.30;;
10132;SDS011;5106;50.926;7.080;2023-04-15T05:12:05;4.33;;;2.43;;
10132;SDS011;5106;50.926;7.080;2023-04-15T05:14:32;3.67;;;2.37;;
10132;SDS011;5106;50.926;7.080;2023-04-15T05:16:58;2.60;;;2.13;;
10132;SDS011;5106;50.926;7.080;2023-04-15T05:19:24;5.13;;;2.60;;
10132;SDS011;5106;50.926;7.080;2023-04-15T05:21:49;5.20;;;2.83;;
10132;SDS011;5106;50.926;7.080;2023-04-15T05:24:15;3.57;;;2.77;;
10132;SDS011;5106;50.926;7.080;2023-04-15T05:26:45;6.43;;;3.17;;
10132;SDS011;5106;50.926;7.080;2023-04-15T05:29:11;5.00;;;2.40;;
10132;SDS011;5106;50.926;7.080;2023-04-15T05:31:36;4.47;;;2.70;;
10132;SDS011;5106;50.926;7.080;2023-04-15T05:34:02;3.67;;;2.73;;
10132;SDS011;5106;50.926;7.080;2023-04-15T05:36:29;4.83;;;3.10;;
10132;SDS011;5106;50.926;7.080;2023-04-15T05:38:55;6.40;;;3.07;;
10132;SDS011;5106;50.926;7.080;2023-04-15T05:41:21;5.90;;;3.07;;
10132;SDS011;5106;50.926;7.080;2023-04-15T05:43:46;7.17;;;2.67;;
10132;SDS011;5106;50.926;7.080;2023-04-15T05:46:12;5.47;;;2.70;;
10132;SDS011;5106;50.926;7.080;2023-04-15T05:48:37;4.10;;;2.60;;
10132;SDS011;5106;50.926;7.080;2023-04-15T05:51:03;6.03;;;3.23;;
10132;SDS011;5106;50.926;7.080;2023-04-15T05:53:29;4.23;;;3.17;;
10132;SDS011;5106;50.926;7.080;2023-04-15T05:55:54;3.53;;;2.80;;
10132;SDS011;5106;50.926;7.080;2023-04-15T05:58:20;5.67;;;2.80;;
10132;SDS011;5106;50.926;7.080;2023-04-15T06:00:45;4.60;;;3.23;;
10132;SDS011;5106;50.926;7.080;2023-04-15T06:03:11;3.93;;;2.67;;
10132;SDS011;5106;50.926;7.080;2023-04-15T06:05:37;4.17;;;3.10;;
10132;SDS011;5106;50.926;7.080;2023-04-15T06:08:02;3.80;;;2.80;;
10132;SDS011;5106;50.926;7.080;2023-04-15T06:10:28;5.13;;;3.00;;
10132;SDS011;5106;50.926;7.080;2023-04-15T06:12:54;8.67;;;3.17;;
10132;SDS011;5106;50.926;7.080;2023-04-15T06:15:20;4.83;;;2.77;;
10132;SDS011;5106;50.926;7.080;2023-04-15T06:17:46;5.90;;;3.07;;
10132;SDS011;5106;50.926;7.080;2023-04-15T06:20:11;8.23;;;4.37;;
10132;SDS011;5106;50.926;7.080;2023-04-15T06:22:37;8.17;;;4.00;;
10132;SDS011;5106;50.926;7.080;2023-04-15T06:25:03;5.97;;;4.30;;
10132;SDS011;5106;50.926;7.080;2023-04-15T06:27:29;6.73;;;3.70;;
10132;SDS011;5106;50.926;7.080;2023-04-15T06:29:55;6.10;;;4.03;;
10132;SDS011;5106;50.926;7.080;2023-04-15T06:32:20;5.70;;;4.20;;
10132;SDS011;5106;50.926;7.080;2023-04-15T06:34:46;7.97;;;4.13;;
10132;SDS011;5106;50.926;7.080;2023-04-15T06:37:11;7.03;;;4.80;;
10132;SDS011;5106;50.926;7.080;2023-04-15T06:39:40;7.53;;;4.73;;
10132;SDS011;5106;50.926;7.080;2023-04-15T06:42:09;12.70;;;5.33;;
10132;SDS011;5106;50.926;7.080;2023-04-15T06:44:35;7.97;;;4.50;;
10132;SDS011;5106;50.926;7.080;2023-04-15T06:47:01;8.00;;;5.07;;
10132;SDS011;5106;50.926;7.080;2023-04-15T06:49:27;7.70;;;4.00;;
10132;SDS011;5106;50.926;7.080;2023-04-15T06:51:52;10.67;;;3.77;;
10132;SDS011;5106;50.926;7.080;2023-04-15T06:54:18;5.30;;;4.30;;
10132;SDS011;5106;50.926;7.080;2023-04-15T06:56:44;9.10;;;4.80;;
10132;SDS011;5106;50.926;7.080;2023-04-15T06:59:10;8.83;;;4.70;;
10132;SDS011;5106;50.926;7.080;2023-04-15T07:01:36;7.60;;;5.03;;
10132;SDS011;5106;50.926;7.080;2023-04-15T07:04:02;8.73;;;4.63;;
10132;SDS011;5106;50.926;7.080;2023-04-15T07:06:27;7.17;;;4.73;;
10132;SDS011;5106;50.926;7.080;2023-04-15T07:08:53;7.23;;;4.37;;
10132;SDS011;5106;50.926;7.080;2023-04-15T07:11:19;7.57;;;4.93;;
10132;SDS011;5106;50.926;7.080;2023-04-15T07:13:45;8.27;;;4.70;;
10132;SDS011;5106;50.926;7.080;2023-04-15T07:16:10;5.67;;;4.47;;
10132;SDS011;5106;50.926;7.080;2023-04-15T07:18:36;9.13;;;5.30;;
10132;SDS011;5106;50.926;7.080;2023-04-15T07:21:02;6.70;;;4.93;;
10132;SDS011;5106;50.926;7.080;2023-04-15T07:23:27;7.82;;;5.00;;
10132;SDS011;5106;50.926;7.080;2023-04-15T07:25:53;9.33;;;5.10;;
10132;SDS011;5106;50.926;7.080;2023-04-15T07:28:19;5.90;;;4.93;;
10132;SDS011;5106;50.926;7.080;2023-04-15T07:30:45;7.18;;;5.05;;
10132;SDS011;5106;50.926;7.080;2023-04-15T07:33:10;8.38;;;5.15;;
10132;SDS011;5106;50.926;7.080;2023-04-15T07:35:36;8.32;;;4.95;;
10132;SDS011;5106;50.926;7.080;2023-04-15T07:38:02;8.32;;;4.57;;
10132;SDS011;5106;50.926;7.080;2023-04-15T07:40:27;6.28;;;4.25;;
10132;SDS011;5106;50.926;7.080;2023-04-15T07:42:53;9.15;;;4.85;;
10132;SDS011;5106;50.926;7.080;2023-04-15T07:45:21;9.48;;;4.75;;
10132;SDS011;5106;50.926;7.080;2023-04-15T07:47:46;5.75;;;4.55;;
10132;SDS011;5106;50.926;7.080;2023-04-15T07:50:12;4.70;;;4.05;;
10132;SDS011;5106;50.926;7.080;2023-04-15T07:52:38;9.35;;;4.30;;
10132;SDS011;5106;50.926;7.080;2023-04-15T07:55:05;4.38;;;3.60;;
10132;SDS011;5106;50.926;7.080;2023-04-15T07:57:32;4.78;;;4.07;;
10132;SDS011;5106;50.926;7.080;2023-04-15T07:59:59;4.40;;;3.55;;
10132;SDS011;5106;50.926;7.080;2023-04-15T08:02:25;6.50;;;3.40;;
10132;SDS011;5106;50.926;7.080;2023-04-15T08:04:51;4.32;;;3.40;;
10132;SDS011;5106;50.926;7.080;2023-04-15T08:07:17;4.05;;;3.15;;
10132;SDS011;5106;50.926;7.080;2023-04-15T08:09:43;3.92;;;2.88;;
10132;SDS011;5106;50.926;7.080;2023-04-15T08:12:10;4.10;;;2.90;;
10132;SDS011;5106;50.926;7.080;2023-04-15T08:14:37;3.50;;;2.58;;
10132;SDS011;5106;50.926;7.080;2023-04-15T08:17:03;2.85;;;2.25;;
10132;SDS011;5106;50.926;7.080;2023-04-15T08:19:29;3.92;;;2.40;;
10132;SDS011;5106;50.926;7.080;2023-04-15T08:21:55;3.72;;;1.98;;
10132;SDS011;5106;50.926;7.080;2023-04-15T08:24:21;3.80;;;1.80;;
10132;SDS011;5106;50.926;7.080;2023-04-15T08:26:46;2.83;;;1.60;;
10132;SDS011;5106;50.926;7.080;2023-04-15T08:29:12;3.00;;;1.58;;
10132;SDS011;5106;50.926;7.080;2023-04-15T08:31:38;2.85;;;1.63;;
10132;SDS011;5106;50.926;7.080;2023-04-15T08:34:03;3.00;;;1.75;;
10132;SDS011;5106;50.926;7.080;2023-04-15T08:36:29;5.78;;;1.80;;
10132;SDS011;5106;50.926;7.080;2023-04-15T08:38:56;2.60;;;1.80;;
10132;SDS011;5106;50.926;7.080;2023-04-15T08:41:23;2.28;;;1.60;;
10132;SDS011;5106;50.926;7.080;2023-04-15T08:43:53;3.35;;;1.73;;
10132;SDS011;5106;50.926;7.080;2023-04-15T08:46:22;2.15;;;1.50;;
10132;SDS011;5106;50.926;7.080;2023-04-15T08:48:48;1.73;;;1.50;;
10132;SDS011;5106;50.926;7.080;2023-04-15T08:51:15;2.10;;;1.50;;
10132;SDS011;5106;50.926;7.080;2023-04-15T08:53:42;2.10;;;1.70;;
10132;SDS011;5106;50.926;7.080;2023-04-15T08:56:08;2.67;;;1.67;;
10132;SDS011;5106;50.926;7.080;2023-04-15T08:58:38;3.30;;;2.00;;
10132;SDS011;5106;50.926;7.080;2023-04-15T09:01:03;2.33;;;1.70;;
10132;SDS011;5106;50.926;7.080;2023-04-15T09:03:29;1.73;;;1.30;;
10132;SDS011;5106;50.926;7.080;2023-04-15T09:05:56;2.58;;;1.70;;
10132;SDS011;5106;50.926;7.080;2023-04-15T09:08:22;2.40;;;1.60;;
10132;SDS011;5106;50.926;7.080;2023-04-15T09:10:48;1.33;;;1.23;;
10132;SDS011;5106;50.926;7.080;2023-04-15T09:13:14;1.90;;;1.38;;
10132;SDS011;5106;50.926;7.080;2023-04-15T09:15:40;2.10;;;1.27;;
10132;SDS011;5106;50.926;7.080;2023-04-15T09:18:05;1.70;;;1.30;;
10132;SDS011;5106;50.926;7.080;2023-04-15T09:20:37;1.80;;;1.63;;
10132;SDS011;5106;50.926;7.080;2023-04-15T09:23:12;2.67;;;1.30;;
10132;SDS011;5106;50.926;7.080;2023-04-15T09:25:38;1.90;;;1.50;;
10132;SDS011;5106;50.926;7.080;2023-04-15T09:28:06;3.55;;;1.30;;
10132;SDS011;5106;50.926;7.080;2023-04-15T09:30:32;3.20;;;1.42;;
10132;SDS011;5106;50.926;7.080;2023-04-15T09:33:00;2.33;;;1.58;;
10132;SDS011;5106;50.926;7.080;2023-04-15T09:35:26;2.05;;;1.42;;
10132;SDS011;5106;50.926;7.080;2023-04-15T09:37:53;2.80;;;1.50;;
10132;SDS011;5106;50.926;7.080;2023-04-15T09:40:35;2.40;;;1.45;;
10132;SDS011;5106;50.926;7.080;2023-04-15T09:43:05;4.13;;;1.83;;
10132;SDS011;5106;50.926;7.080;2023-04-15T09:45:32;2.50;;;1.60;;
10132;SDS011;5106;50.926;7.080;2023-04-15T09:48:13;3.63;;;1.80;;
10132;SDS011;5106;50.926;7.080;2023-04-15T09:50:41;3.20;;;2.10;;
10132;SDS011;5106;50.926;7.080;2023-04-15T09:53:14;3.88;;;1.70;;
10132;SDS011;5106;50.926;7.080;2023-04-15T09:55:51;3.40;;;2.03;;
10132;SDS011;5106;50.926;7.080;2023-04-15T09:58:28;3.78;;;2.20;;
10132;SDS011;5106;50.926;7.080;2023-04-15T10:00:56;3.65;;;1.52;;
10132;SDS011;5106;50.926;7.080;2023-04-15T10:03:23;3.58;;;1.58;;
10132;SDS011;5106;50.926;7.080;2023-04-15T10:05:50;2.05;;;1.50;;
10132;SDS011;5106;50.926;7.080;2023-04-15T10:08:18;1.88;;;1.23;;
10132;SDS011;5106;50.926;7.080;2023-04-15T10:10:45;8.65;;;1.67;;
10132;SDS011;5106;50.926;7.080;2023-04-15T10:13:13;1.65;;;1.45;;
10132;SDS011;5106;50.926;7.080;2023-04-15T10:15:42;1.40;;;1.30;;
10132;SDS011;5106;50.926;7.080;2023-04-15T10:18:11;2.97;;;1.65;;
10132;SDS011;5106;50.926;7.080;2023-04-15T10:20:43;3.28;;;1.63;;
10132;SDS011;5106;50.926;7.080;2023-04-15T10:23:11;3.42;;;1.80;;
10132;SDS011;5106;50.926;7.080;2023-04-15T10:25:38;1.85;;;1.70;;
10132;SDS011;5106;50.926;7.080;2023-04-15T10:28:07;2.40;;;2.20;;
10132;SDS011;5106;50.926;7.080;2023-04-15T10:30:34;3.22;;;2.45;;
10132;SDS011;5106;50.926;7.080;2023-04-15T10:33:01;4.10;;;2.80;;
10132;SDS011;5106;50.926;7.080;2023-04-15T10:35:28;2.58;;;2.25;;
10132;SDS011;5106;50.926;7.080;2023-04-15T10:37:55;4.40;;;2.67;;
10132;SDS011;5106;50.926;7.080;2023-04-15T10:40:24;3.00;;;2.70;;
10132;SDS011;5106;50.926;7.080;2023-04-15T10:42:55;2.80;;;2.60;;
10132;SDS011;5106;50.926;7.080;2023-04-15T10:45:26;2.72;;;2.53;;
10132;SDS011;5106;50.926;7.080;2023-04-15T10:47:55;2.95;;;2.55;;
10132;SDS011;5106;50.926;7.080;2023-04-15T10:50:24;2.67;;;2.47;;
10132;SDS011;5106;50.926;7.080;2023-04-15T10:52:50;2.47;;;2.20;;
10132;SDS011;5106;50.926;7.080;2023-04-15T10:55:21;2.80;;;2.22;;
10132;SDS011;5106;50.926;7.080;2023-04-15T10:57:56;3.17;;;2.22;;
10132;SDS011;5106;50.926;7.080;2023-04-15T11:00:25;2.60;;;2.30;;
10132;SDS011;5106;50.926;7.080;2023-04-15T11:05:20;2.50;;;2.30;;
10132;SDS011;5106;50.926;7.080;2023-04-15T11:07:51;2.22;;;1.95;;
10132;SDS011;5106;50.926;7.080;2023-04-15T11:12:51;2.85;;;2.35;;
10132;SDS011;5106;50.926;7.080;2023-04-15T11:16:00;5.38;;;2.90;;
10132;SDS011;5106;50.926;7.080;2023-04-15T11:20:44;2.40;;;2.20;;
10132;SDS011;5106;50.926;7.080;2023-04-15T11:23:14;2.95;;;2.65;;
10132;SDS011;5106;50.926;7.080;2023-04-15T11:25:42;5.20;;;2.53;;
10132;SDS011;5106;50.926;7.080;2023-04-15T11:28:08;3.17;;;2.13;;
10132;SDS011;5106;50.926;7.080;2023-04-15T11:30:35;4.15;;;2.30;;
10132;SDS011;5106;50.926;7.080;2023-04-15T11:33:07;2.60;;;2.20;;
10132;SDS011;5106;50.926;7.080;2023-04-15T11:35:36;2.40;;;2.20;;
10132;SDS011;5106;50.926;7.080;2023-04-15T11:38:09;2.40;;;2.20;;
10132;SDS011;5106;50.926;7.080;2023-04-15T11:40:36;2.38;;;2.17;;
10132;SDS011;5106;50.926;7.080;2023-04-15T11:43:03;2.47;;;2.28;;
10132;SDS011;5106;50.926;7.080;2023-04-15T11:46:13;2.70;;;2.22;;
10132;SDS011;5106;50.926;7.080;2023-04-15T11:48:35;2.83;;;2.00;;
10132;SDS011;5106;50.926;7.080;2023-04-15T11:51:06;2.40;;;2.00;;
10132;SDS011;5106;50.926;7.080;2023-04-15T11:53:45;2.50;;;2.30;;
10132;SDS011;5106;50.926;7.080;2023-04-15T11:56:18;2.30;;;2.10;;
10132;SDS011;5106;50.926;7.080;2023-04-15T11:58:45;1.88;;;1.77;;
10132;SDS011;5106;50.926;7.080;2023-04-15T12:01:11;2.20;;;2.00;;
10132;SDS011;5106;50.926;7.080;2023-04-15T12:03:41;2.38;;;2.08;;
10132;SDS011;5106;50.926;7.080;2023-04-15T12:11:16;3.75;;;2.40;;
10132;SDS011;5106;50.926;7.080;2023-04-15T12:13:46;2.55;;;1.92;;
10132;SDS011;5106;50.926;7.080;2023-04-15T12:16:19;2.50;;;2.30;;
10132;SDS011;5106;50.926;7.080;2023-04-15T12:18:46;2.45;;;2.00;;
10132;SDS011;5106;50.926;7.080;2023-04-15T12:21:23;2.50;;;2.30;;
10132;SDS011;5106;50.926;7.080;2023-04-15T12:23:54;2.40;;;2.05;;
10132;SDS011;5106;50.926;7.080;2023-04-15T12:26:27;3.03;;;2.40;;
10132;SDS011;5106;50.926;7.080;2023-04-15T12:29:06;2.85;;;2.53;;
10132;SDS011;5106;50.926;7.080;2023-04-15T12:31:35;2.47;;;2.28;;
10132;SDS011;5106;50.926;7.080;2023-04-15T12:34:10;2.60;;;2.40;;
10132;SDS011;5106;50.926;7.080;2023-04-15T12:36:35;2.47;;;2.28;;
10132;SDS011;5106;50.926;7.080;2023-04-15T12:39:04;2.58;;;2.33;;
10132;SDS011;5106;50.926;7.080;2023-04-15T12:41:30;2.53;;;2.33;;
10132;SDS011;5106;50.926;7.080;2023-04-15T12:43:56;2.65;;;2.45;;
10132;SDS011;5106;50.926;7.080;2023-04-15T12:46:22;2.75;;;2.55;;
10132;SDS011;5106;50.926;7.080;2023-04-15T12:48:48;3.95;;;2.58;;
10132;SDS011;5106;50.926;7.080;2023-04-15T12:51:15;2.65;;;2.45;;
10132;SDS011;5106;50.926;7.080;2023-04-15T12:53:40;2.53;;;2.33;;
10132;SDS011;5106;50.926;7.080;2023-04-15T12:56:06;2.78;;;2.50;;
10132;SDS011;5106;50.926;7.080;2023-04-15T12:58:32;3.25;;;2.80;;
10132;SDS011;5106;50.926;7.080;2023-04-15T13:00:57;3.85;;;3.05;;
10132;SDS011;5106;50.926;7.080;2023-04-15T13:03:23;3.47;;;3.08;;
10132;SDS011;5106;50.926;7.080;2023-04-15T13:05:49;4.32;;;3.10;;
10132;SDS011;5106;50.926;7.080;2023-04-15T13:08:15;3.60;;;3.30;;
10132;SDS011;5106;50.926;7.080;2023-04-15T13:10:41;3.40;;;3.00;;
10132;SDS011;5106;50.926;7.080;2023-04-15T13:13:07;4.25;;;3.13;;
10132;SDS011;5106;50.926;7.080;2023-04-15T13:15:33;4.95;;;3.00;;
10132;SDS011;5106;50.926;7.080;2023-04-15T13:17:58;4.18;;;3.65;;
10132;SDS011;5106;50.926;7.080;2023-04-15T13:20:24;3.78;;;3.33;;
10132;SDS011;5106;50.926;7.080;2023-04-15T13:22:51;4.65;;;3.28;;
10132;SDS011;5106;50.926;7.080;2023-04-15T13:25:17;3.80;;;3.50;;
10132;SDS011;5106;50.926;7.080;2023-04-15T13:27:43;4.00;;;3.70;;
10132;SDS011;5106;50.926;7.080;2023-04-15T13:30:08;4.60;;;3.60;;
10132;SDS011;5106;50.926;7.080;2023-04-15T13:32:34;5.00;;;4.13;;
10132;SDS011;5106;50.926;7.080;2023-04-15T13:35:00;5.03;;;4.63;;
10132;SDS011;5106;50.926;7.080;2023-04-15T13:37:26;5.38;;;4.88;;
10132;SDS011;5106;50.926;7.080;2023-04-15T13:39:53;6.82;;;6.20;;
10132;SDS011;5106;50.926;7.080;2023-04-15T13:42:19;6.65;;;6.05;;
10132;SDS011;5106;50.926;7.080;2023-04-15T13:44:46;6.07;;;5.47;;
10132;SDS011;5106;50.926;7.080;2023-04-15T13:47:11;7.25;;;6.57;;
10132;SDS011;5106;50.926;7.080;2023-04-15T13:49:38;6.43;;;5.82;;
10132;SDS011;5106;50.926;7.080;2023-04-15T13:52:04;6.78;;;6.10;;
10132;SDS011;5106;50.926;7.080;2023-04-15T13:54:30;6.80;;;6.13;;
10132;SDS011;5106;50.926;7.080;2023-04-15T13:56:56;6.43;;;5.82;;
10132;SDS011;5106;50.926;7.080;2023-04-15T13:59:22;6.60;;;6.00;;
10132;SDS011;5106;50.926;7.080;2023-04-15T14:01:48;6.75;;;6.15;;
10132;SDS011;5106;50.926;7.080;2023-04-15T14:04:14;7.07;;;6.38;;
10132;SDS011;5106;50.926;7.080;2023-04-15T14:06:40;6.82;;;6.15;;
10132;SDS011;5106;50.926;7.080;2023-04-15T14:09:05;7.03;;;6.13;;
10132;SDS011;5106;50.926;7.080;2023-04-15T14:11:32;7.68;;;6.88;;
10132;SDS011;5106;50.926;7.080;2023-04-15T14:14:00;7.05;;;6.35;;
10132;SDS011;5106;50.926;7.080;2023-04-15T14:16:26;8.20;;;7.40;;
10132;SDS011;5106;50.926;7.080;2023-04-15T14:18:52;7.72;;;7.03;;
10132;SDS011;5106;50.926;7.080;2023-04-15T14:21:17;7.88;;;7.07;;
10132;SDS011;5106;50.926;7.080;2023-04-15T14:23:43;7.30;;;6.60;;
10132;SDS011;5106;50.926;7.080;2023-04-15T14:26:09;7.72;;;6.95;;
10132;SDS011;5106;50.926;7.080;2023-04-15T14:28:34;8.70;;;6.70;;
10132;SDS011;5106;50.926;7.080;2023-04-15T14:31:02;7.28;;;6.57;;
10132;SDS011;5106;50.926;7.080;2023-04-15T14:33:27;6.13;;;5.57;;
10132;SDS011;5106;50.926;7.080;2023-04-15T14:35:53;6.53;;;5.93;;
10132;SDS011;5106;50.926;7.080;2023-04-15T14:38:18;6.47;;;5.88;;
10132;SDS011;5106;50.926;7.080;2023-04-15T14:40:47;5.88;;;5.30;;
10132;SDS011;5106;50.926;7.080;2023-04-15T14:43:12;6.30;;;5.70;;
10132;SDS011;5106;50.926;7.080;2023-04-15T14:45:38;5.93;;;5.35;;
10132;SDS011;5106;50.926;7.080;2023-04-15T14:48:04;5.20;;;4.70;;
10132;SDS011;5106;50.926;7.080;2023-04-15T14:50:30;5.88;;;5.22;;
10132;SDS011;5106;50.926;7.080;2023-04-15T14:52:57;6.05;;;5.40;;
10132;SDS011;5106;50.926;7.080;2023-04-15T14:55:23;5.43;;;4.93;;
10132;SDS011;5106;50.926;7.080;2023-04-15T14:57:48;5.47;;;4.85;;
10132;SDS011;5106;50.926;7.080;2023-04-15T15:00:14;6.00;;;4.50;;
10132;SDS011;5106;50.926;7.080;2023-04-15T15:02:40;4.40;;;4.00;;
10132;SDS011;5106;50.926;7.080;2023-04-15T15:05:06;4.82;;;4.35;;
10132;SDS011;5106;50.926;7.080;2023-04-15T15:07:33;4.90;;;4.40;;
10132;SDS011;5106;50.926;7.080;2023-04-15T15:10:00;5.15;;;4.57;;